Time;durP1;ratioP1;P1;durP2;ratioP2;P2;SDS_P1;SDS_P2;PMS_P1;PMS_P2;Temp;Humidity;BMP_temperature;BMP_pressure;BME280_temperature;BME280_humidity;BME280_pressure;Samples;Min_cycle;Max_cycle;Signal;HPM_P1;HPM_P2
2023/11/28 00:00:29;;;;;;;;;;;;;;;2.06;61.59;92986.66;5061059;28;19924;-63
2023/11/28 00:02:54;;;;;;;;;;;;;;;2.12;62.88;92989.31;5067761;28;19981;-63
2023/11/28 00:05:20;;;;;;;;;;;;;;;2.17;62.59;92994.00;5058005;28;20434;-64
2023/11/28 00:07:45;;;;;;;;;;;;;;;2.19;60.56;92993.81;5068665;28;19924;-64
2023/11/28 00:10:10;;;;;;;;;;;;;;;2.39;60.60;92989.53;5059020;28;19928;-64
2023/11/28 00:12:36;;;;;;;;;;;;;;;2.45;58.80;92989.78;5062957;28;20017;-63
2023/11/28 00:15:01;;;;;;;;;;;;;;;2.33;62.04;92992.94;5063572;28;19924;-64
2023/11/28 00:17:26;;;;;;;;;;;;;;;2.30;62.87;92995.94;5064002;28;19970;-63
2023/11/28 00:19:52;;;;;;;;;;;;;;;2.31;63.00;93002.81;5074905;28;19927;-63
2023/11/28 00:22:17;;;;;;;;;;;;;;;2.29;61.68;93001.38;5057811;28;19956;-64
2023/11/28 00:24:42;;;;;;;;;;;;;;;2.33;63.00;93006.06;5060607;28;19928;-64
2023/11/28 00:27:08;;;;;;;;;;;;;;;2.34;62.70;92999.78;5059324;28;19952;-64
2023/11/28 00:29:33;;;;;;;;;;;;;;;2.32;60.35;93004.44;5058917;28;19920;-64
2023/11/28 00:32:00;;;;;;;;;;;;;;;2.04;58.51;93007.84;5061962;28;19935;-63
2023/11/28 00:34:25;;;;;;;;;;;;;;;1.84;58.26;93008.47;5057433;28;19992;-64
2023/11/28 00:36:51;;;;;;;;;;;;;;;1.95;61.49;93014.22;5059581;28;20035;-64
2023/11/28 00:39:16;;;;;;;;;;;;;;;1.92;63.37;93014.59;5057734;28;19928;-64
2023/11/28 00:41:42;;;;;;;;;;;;;;;1.99;62.35;93018.91;5059539;28;20052;-64
2023/11/28 00:44:07;;;;;;;;;;;;;;;1.77;61.92;93017.28;5058900;28;19920;-64
2023/11/28 00:46:32;;;;;;;;;;;;;;;1.85;62.29;93018.00;5063351;28;19932;-64
2023/11/28 00:48:58;;;;;;;;;;;;;;;1.86;63.79;93019.59;5061765;28;19931;-63
2023/11/28 00:51:23;;;;;;;;;;;;;;;1.40;58.02;93018.09;5066070;28;19924;-64
2023/11/28 00:53:49;;;;;;;;;;;;;;;1.47;58.22;93018.19;5066355;28;19920;-63
2023/11/28 00:56:20;;;;;;;;;;;;;;;1.55;60.71;93025.13;5066618;28;20019;-65
2023/11/28 00:58:46;;;;;;;;;;;;;;;0.98;55.80;93020.44;5061585;28;19952;-65
2023/11/28 01:01:12;;;;;;;;;;;;;;;1.20;56.96;93029.16;5064671;28;19971;-65
2023/11/28 01:03:38;;;;;;;;;;;;;;;1.32;61.93;93034.75;5064376;28;19924;-64
2023/11/28 01:06:04;;;;;;;;;;;;;;;1.36;60.41;93041.25;5064627;28;20026;-64
2023/11/28 01:08:29;;;;;;;;;;;;;;;1.35;61.17;93044.88;5062266;28;19999;-67
2023/11/28 01:10:54;;;;;;;;;;;;;;;1.48;63.11;93035.53;5068577;28;19924;-65
2023/11/28 01:13:19;;;;;;;;;;;;;;;1.55;63.13;93046.94;5061962;28;20767;-64
2023/11/28 01:15:45;;;;;;;;;;;;;;;1.57;62.29;93049.38;5069650;28;20408;-63
2023/11/28 01:18:10;;;;;;;;;;;;;;;1.19;60.36;93040.66;5064818;28;19960;-64
2023/11/28 01:20:35;;;;;;;;;;;;;;;1.26;64.67;93045.16;5063369;28;19924;-65
2023/11/28 01:23:00;;;;;;;;;;;;;;;1.36;62.61;93043.88;5071466;28;20440;-66
2023/11/28 01:25:26;;;;;;;;;;;;;;;1.43;61.34;93043.16;5063186;28;19925;-66
2023/11/28 01:27:52;;;;;;;;;;;;;;;1.46;62.14;93053.25;5078356;28;19924;-65
2023/11/28 01:30:18;;;;;;;;;;;;;;;1.40;61.25;93052.16;5080101;28;19931;-64
2023/11/28 01:32:44;;;;;;;;;;;;;;;1.34;61.35;93059.00;5072618;28;19928;-65
2023/11/28 01:35:09;;;;;;;;;;;;;;;1.36;62.50;93064.03;5072897;28;19923;-65
2023/11/28 01:37:35;;;;;;;;;;;;;;;1.27;59.65;93065.13;5078777;28;19920;-65
2023/11/28 01:40:02;;;;;;;;;;;;;;;1.10;55.62;93066.13;5080100;28;19931;-66
2023/11/28 01:42:27;;;;;;;;;;;;;;;1.16;62.07;93072.47;5060626;28;19920;-64
2023/11/28 01:44:53;;;;;;;;;;;;;;;0.84;60.83;93072.66;5049816;28;19921;-64
2023/11/28 01:47:18;;;;;;;;;;;;;;;0.90;61.60;93080.78;5057072;28;19931;-64
2023/11/28 01:49:43;;;;;;;;;;;;;;;0.80;61.25;93083.66;5058514;28;19951;-63
2023/11/28 01:52:10;;;;;;;;;;;;;;;0.93;59.69;93091.72;5046049;28;19925;-63
2023/11/28 01:54:35;;;;;;;;;;;;;;;0.97;60.89;93093.00;5044980;28;20830;-64
2023/11/28 01:57:00;;;;;;;;;;;;;;;0.77;55.70;93091.88;5046323;28;19929;-64
2023/11/28 01:59:25;;;;;;;;;;;;;;;0.58;61.64;93097.47;5059516;28;19921;-65
2023/11/28 02:01:51;;;;;;;;;;;;;;;-0.69;53.88;93094.22;5053831;28;19925;-65
2023/11/28 02:04:16;;;;;;;;;;;;;;;0.30;62.46;93110.28;5060000;28;19920;-64
2023/11/28 02:06:41;;;;;;;;;;;;;;;-0.34;56.08;93104.38;5046862;28;20589;-64
2023/11/28 02:09:06;;;;;;;;;;;;;;;-0.10;61.07;93113.84;5058927;28;19916;-64
2023/11/28 02:11:32;;;;;;;;;;;;;;;-0.42;56.44;93123.53;5058980;28;19925;-65
2023/11/28 02:13:57;;;;;;;;;;;;;;;-0.58;59.70;93124.41;5054670;28;20623;-63
2023/11/28 02:16:22;;;;;;;;;;;;;;;-1.38;61.53;93129.50;5050931;28;19921;-63
2023/11/28 02:18:47;;;;;;;;;;;;;;;-0.47;57.06;93125.84;5052132;28;19920;-64
2023/11/28 02:21:13;;;;;;;;;;;;;;;-0.73;54.17;93130.34;5052842;28;19964;-64
2023/11/28 02:23:38;;;;;;;;;;;;;;;-0.12;60.47;93130.72;5044889;28;20577;-64
2023/11/28 02:26:05;;;;;;;;;;;;;;;-1.64;56.93;93144.38;5043899;28;20321;-63
2023/11/28 02:28:30;;;;;;;;;;;;;;;-1.75;56.85;93137.69;5040210;28;20681;-64
2023/11/28 02:30:56;;;;;;;;;;;;;;;-0.85;63.75;93145.56;5041778;28;19924;-63
2023/11/28 02:33:21;;;;;;;;;;;;;;;-0.43;57.77;93143.59;5043013;28;19939;-64
2023/11/28 02:35:47;;;;;;;;;;;;;;;-0.21;57.11;93149.06;5056176;28;19924;-64
2023/11/28 02:38:13;;;;;;;;;;;;;;;-0.50;64.14;93160.16;5059192;28;20017;-63
2023/11/28 02:40:38;;;;;;;;;;;;;;;-0.61;59.09;93151.69;5042653;28;19928;-64
2023/11/28 02:43:03;;;;;;;;;;;;;;;-0.33;53.72;93150.44;5065755;28;20415;-63
2023/11/28 02:45:28;;;;;;;;;;;;;;;-0.76;54.73;93158.59;5071500;28;20003;-63
2023/11/28 02:47:54;;;;;;;;;;;;;;;-2.19;65.73;93164.84;5043005;28;19917;-65
2023/11/28 02:50:19;;;;;;;;;;;;;;;-1.31;55.94;93164.41;5046803;28;19920;-63
2023/11/28 02:52:44;;;;;;;;;;;;;;;-1.56;61.14;93163.59;5073340;28;21216;-64
2023/11/28 02:55:09;;;;;;;;;;;;;;;-1.28;62.62;93169.31;5049884;28;20070;-64
2023/11/28 02:57:35;;;;;;;;;;;;;;;-0.98;60.08;93166.16;5044736;28;19936;-63
2023/11/28 03:00:00;;;;;;;;;;;;;;;-0.80;60.96;93171.22;5043589;28;20669;-64
2023/11/28 03:02:26;;;;;;;;;;;;;;;-1.35;61.19;93176.16;5045039;28;19925;-63
2023/11/28 03:04:52;;;;;;;;;;;;;;;-2.58;65.81;93184.41;5039281;28;20582;-64
2023/11/28 03:07:17;;;;;;;;;;;;;;;-1.59;58.25;93178.59;5045624;28;19924;-63
2023/11/28 03:09:42;;;;;;;;;;;;;;;-2.17;59.89;93186.34;5042569;28;20799;-63
2023/11/28 03:12:08;;;;;;;;;;;;;;;-4.08;65.03;93198.19;5072649;28;19935;-64
2023/11/28 03:14:33;;;;;;;;;;;;;;;-2.25;64.80;93197.56;5056152;28;19920;-64
2023/11/28 03:16:59;;;;;;;;;;;;;;;-1.95;61.68;93197.16;5045156;28;20441;-63
2023/11/28 03:19:24;;;;;;;;;;;;;;;-4.64;70.73;93206.84;5049502;28;19929;-63
2023/11/28 03:21:49;;;;;;;;;;;;;;;-5.22;73.25;93216.44;5039580;28;19939;-63
2023/11/28 03:24:15;;;;;;;;;;;;;;;-5.30;74.26;93218.91;5040532;28;20584;-62
2023/11/28 03:26:40;;;;;;;;;;;;;;;-3.52;77.65;93216.25;5049975;28;19924;-63
2023/11/28 03:29:06;;;;;;;;;;;;;;;-4.47;70.96;93222.59;5038785;28;19917;-63
2023/11/28 03:31:31;;;;;;;;;;;;;;;-4.46;80.88;93232.03;5044894;28;19928;-63
2023/11/28 03:33:56;;;;;;;;;;;;;;;-3.71;81.80;93230.19;5042495;28;19927;-63
2023/11/28 03:36:21;;;;;;;;;;;;;;;-2.68;74.83;93228.03;5046385;28;20674;-63
2023/11/28 03:38:49;;;;;;;;;;;;;;;-4.82;79.72;93241.31;5038200;28;20378;-63
2023/11/28 03:41:15;;;;;;;;;;;;;;;-2.39;74.39;93239.88;5045587;28;19931;-63
2023/11/28 03:43:40;;;;;;;;;;;;;;;-3.76;68.49;93242.84;5052083;28;19924;-63
2023/11/28 03:46:05;;;;;;;;;;;;;;;-3.83;71.71;93253.84;5042335;28;20410;-63
2023/11/28 03:48:31;;;;;;;;;;;;;;;-3.17;70.65;93250.16;5038603;28;19921;-63
2023/11/28 03:50:56;;;;;;;;;;;;;;;-2.59;67.90;93267.94;5050302;28;19928;-62
2023/11/28 03:53:22;;;;;;;;;;;;;;;-2.13;70.64;93259.88;5061774;28;19920;-63
2023/11/28 03:55:47;;;;;;;;;;;;;;;-2.56;65.05;93262.44;5044680;28;19925;-63
2023/11/28 03:58:13;;;;;;;;;;;;;;;-2.83;67.33;93272.03;5051340;28;22373;-63
2023/11/28 04:00:38;;;;;;;;;;;;;;;-3.11;69.36;93270.41;5043369;28;19944;-63
2023/11/28 04:03:03;;;;;;;;;;;;;;;-3.62;73.92;93283.13;5050808;28;19946;-63
2023/11/28 04:05:28;;;;;;;;;;;;;;;-3.32;73.02;93284.56;5044495;28;20393;-63
2023/11/28 04:07:54;;;;;;;;;;;;;;;-4.10;76.12;93294.50;5057969;28;19920;-63
2023/11/28 04:10:19;;;;;;;;;;;;;;;-3.61;70.03;93297.75;5066921;28;19920;-64
2023/11/28 04:12:44;;;;;;;;;;;;;;;-4.30;68.43;93304.16;5070201;28;20006;-63
2023/11/28 04:15:09;;;;;;;;;;;;;;;-4.09;83.13;93322.13;5063985;28;19924;-63
2023/11/28 04:17:35;;;;;;;;;;;;;;;-4.39;76.34;93323.22;5065561;28;20109;-63
2023/11/28 04:20:00;;;;;;;;;;;;;;;-4.00;77.00;93319.63;5062236;28;19924;-63
2023/11/28 04:22:25;;;;;;;;;;;;;;;-4.16;83.09;93326.25;5063868;28;20020;-63
2023/11/28 04:24:51;;;;;;;;;;;;;;;-4.34;81.47;93332.22;5064711;28;20053;-63
2023/11/28 04:27:16;;;;;;;;;;;;;;;-4.95;70.14;93336.88;5063403;28;19928;-63
2023/11/28 04:29:41;;;;;;;;;;;;;;;-4.38;78.67;93336.03;5057990;28;19921;-65
2023/11/28 04:32:07;;;;;;;;;;;;;;;-5.03;72.35;93347.94;5059961;28;19967;-64
2023/11/28 04:34:32;;;;;;;;;;;;;;;-5.77;88.62;93363.03;5058796;28;19931;-64
2023/11/28 04:36:58;;;;;;;;;;;;;;;-5.48;91.45;93357.06;5065094;28;20419;-63
2023/11/28 04:39:24;;;;;;;;;;;;;;;-4.65;88.46;93349.81;5066269;28;19931;-63
2023/11/28 04:41:49;;;;;;;;;;;;;;;-4.75;89.84;93348.06;5065713;28;19925;-65
2023/11/28 04:44:14;;;;;;;;;;;;;;;-5.43;83.43;93354.91;5057598;28;19928;-63
2023/11/28 04:46:40;;;;;;;;;;;;;;;-7.28;96.79;93363.34;5063648;28;19924;-63
2023/11/28 04:49:05;;;;;;;;;;;;;;;-6.68;100.00;93368.00;5057529;28;20461;-63
2023/11/28 04:51:30;;;;;;;;;;;;;;;-5.97;100.00;93371.56;5061034;28;19928;-63
2023/11/28 04:53:55;;;;;;;;;;;;;;;-4.98;100.00;93376.91;5062287;28;19924;-63
2023/11/28 04:56:21;;;;;;;;;;;;;;;-6.80;100.00;93389.72;5060743;28;20161;-63
2023/11/28 04:58:46;;;;;;;;;;;;;;;-4.30;89.81;93382.94;5057139;28;20391;-63
2023/11/28 05:01:11;;;;;;;;;;;;;;;-5.31;99.00;93388.50;5066115;28;19931;-63
2023/11/28 05:03:36;;;;;;;;;;;;;;;-4.36;88.95;93387.88;5061854;28;19925;-63
2023/11/28 05:06:02;;;;;;;;;;;;;;;-6.04;88.19;93398.13;5057340;28;19920;-63
2023/11/28 05:08:27;;;;;;;;;;;;;;;-6.61;94.70;93409.72;5067860;28;20033;-64
2023/11/28 05:10:52;;;;;;;;;;;;;;;-5.02;90.35;93413.66;5064419;28;19979;-63
2023/11/28 05:13:17;;;;;;;;;;;;;;;-5.11;84.81;93418.69;5063668;28;19925;-62
2023/11/28 05:15:43;;;;;;;;;;;;;;;-5.52;86.35;93417.94;5058583;28;19924;-63
2023/11/28 05:18:08;;;;;;;;;;;;;;;-6.02;89.46;93430.75;5067592;28;20388;-63
2023/11/28 05:20:33;;;;;;;;;;;;;;;-4.88;77.46;93436.59;5066179;28;20012;-63
2023/11/28 05:22:59;;;;;;;;;;;;;;;-4.07;83.15;93433.75;5059268;28;19924;-62
2023/11/28 05:25:24;;;;;;;;;;;;;;;-3.99;81.24;93446.03;5057706;28;20422;-63
2023/11/28 05:27:51;;;;;;;;;;;;;;;-4.27;79.38;93456.38;5059699;28;19928;-64
2023/11/28 05:30:16;;;;;;;;;;;;;;;-4.39;79.75;93459.13;5076718;28;19924;-63
2023/11/28 05:32:41;;;;;;;;;;;;;;;-4.42;77.80;93462.00;5071614;28;20390;-63
2023/11/28 05:35:07;;;;;;;;;;;;;;;-4.73;76.08;93473.38;5077801;28;19924;-63
2023/11/28 05:37:32;;;;;;;;;;;;;;;-4.62;73.38;93493.19;5067544;28;19932;-62
2023/11/28 05:40:03;;;;;;;;;;;;;;;-5.60;79.45;93480.84;5060771;28;20364;-61
2023/11/28 05:42:30;;;;;;;;;;;;;;;-5.31;75.71;93489.69;5075177;28;19924;-62
2023/11/28 05:44:55;;;;;;;;;;;;;;;-4.90;79.81;93489.63;5069474;28;19989;-62
2023/11/28 05:47:21;;;;;;;;;;;;;;;-5.34;85.83;93501.97;5063008;28;19932;-62
2023/11/28 05:49:46;;;;;;;;;;;;;;;-5.91;80.33;93505.00;5065321;28;19924;-62
2023/11/28 05:52:11;;;;;;;;;;;;;;;-5.66;84.24;93500.34;5065735;28;20010;-62
2023/11/28 05:54:36;;;;;;;;;;;;;;;-5.25;79.85;93515.09;5062938;28;19921;-62
2023/11/28 05:57:02;;;;;;;;;;;;;;;-5.16;78.24;93518.66;5065174;28;19932;-62
2023/11/28 05:59:27;;;;;;;;;;;;;;;-5.28;71.47;93523.97;5065445;28;20377;-62
2023/11/28 06:01:57;;;;;;;;;;;;;;;-5.21;75.32;93527.66;5066958;28;20552;-62
2023/11/28 06:04:22;;;;;;;;;;;;;;;-5.91;83.98;93530.91;5068868;28;19924;-62
2023/11/28 06:06:47;;;;;;;;;;;;;;;-5.41;77.76;93524.19;5067569;28;19921;-63
2023/11/28 06:09:12;;;;;;;;;;;;;;;-5.57;82.32;93527.28;5071066;28;19931;-63
2023/11/28 06:11:38;;;;;;;;;;;;;;;-6.19;80.86;93546.16;5064375;28;19924;-63
2023/11/28 06:14:03;;;;;;;;;;;;;;;-5.81;78.14;93558.66;5065919;28;20031;-63
2023/11/28 06:16:28;;;;;;;;;;;;;;;-4.70;76.09;93552.78;5060289;28;20294;-63
2023/11/28 06:18:53;;;;;;;;;;;;;;;-4.62;77.57;93555.50;5069105;28;19978;-63
2023/11/28 06:21:19;;;;;;;;;;;;;;;-4.51;89.50;93551.16;5060656;28;19932;-64
2023/11/28 06:23:44;;;;;;;;;;;;;;;-4.49;77.08;93554.44;5062913;28;20011;-63
2023/11/28 06:26:11;;;;;;;;;;;;;;;-5.56;83.43;93566.97;5059777;28;19920;-64
2023/11/28 06:28:36;;;;;;;;;;;;;;;-5.26;82.29;93583.50;5077590;28;19926;-63
2023/11/28 06:31:01;;;;;;;;;;;;;;;-4.90;90.83;93588.28;5063046;28;20504;-63
2023/11/28 06:33:27;;;;;;;;;;;;;;;-4.09;81.02;93589.03;5068192;28;20200;-63
2023/11/28 06:35:52;;;;;;;;;;;;;;;-4.70;70.78;93596.91;5059782;28;19920;-63
2023/11/28 06:38:17;;;;;;;;;;;;;;;-4.67;74.97;93607.03;5061494;28;19933;-63
2023/11/28 06:40:42;;;;;;;;;;;;;;;-5.10;79.63;93608.94;5063280;28;20395;-63
2023/11/28 06:43:08;;;;;;;;;;;;;;;-4.72;75.15;93611.81;5065337;28;19970;-63
2023/11/28 06:45:35;;;;;;;;;;;;;;;-5.34;80.71;93618.69;5061298;28;19921;-63
2023/11/28 06:48:00;;;;;;;;;;;;;;;-5.36;75.89;93625.78;5064930;28;19924;-64
2023/11/28 06:50:26;;;;;;;;;;;;;;;-5.34;79.09;93629.06;5061494;28;19920;-65
2023/11/28 06:52:51;;;;;;;;;;;;;;;-5.90;72.70;93646.63;5075186;28;19928;-64
2023/11/28 06:55:16;;;;;;;;;;;;;;;-5.09;75.72;93647.75;5068839;28;19931;-64
2023/11/28 06:57:41;;;;;;;;;;;;;;;-5.65;82.17;93661.91;5072261;28;20372;-64
2023/11/28 07:00:08;;;;;;;;;;;;;;;-5.14;77.93;93662.91;5073398;28;19931;-64
2023/11/28 07:02:35;;;;;;;;;;;;;;;-5.10;76.87;93668.63;5069180;28;19924;-64
2023/11/28 07:05:01;;;;;;;;;;;;;;;-5.79;77.12;93683.78;5072554;28;20015;-64
2023/11/28 07:07:26;;;;;;;;;;;;;;;-6.76;74.98;93696.53;5070786;28;20562;-64
2023/11/28 07:09:52;;;;;;;;;;;;;;;-5.94;77.41;93704.84;5073365;28;19928;-64
2023/11/28 07:12:17;;;;;;;;;;;;;;;-5.93;76.51;93706.47;5074512;28;20006;-64
2023/11/28 07:14:42;;;;;;;;;;;;;;;-5.65;77.48;93726.75;5073168;28;20011;-64
2023/11/28 07:17:07;;;;;;;;;;;;;;;-5.79;75.59;93727.84;5072434;28;20054;-64
2023/11/28 07:19:33;;;;;;;;;;;;;;;-5.89;77.22;93733.78;5072832;28;19931;-64
2023/11/28 07:21:58;;;;;;;;;;;;;;;-6.07;77.06;93730.91;5072531;28;19971;-64
2023/11/28 07:24:23;;;;;;;;;;;;;;;-6.63;76.55;93736.03;5073693;28;20356;-64
2023/11/28 07:26:49;;;;;;;;;;;;;;;-6.11;77.24;93761.41;5074117;28;19928;-64
2023/11/28 07:29:15;;;;;;;;;;;;;;;-6.57;77.64;93750.28;5073907;28;20015;-64
2023/11/28 07:31:40;;;;;;;;;;;;;;;-6.04;80.47;93760.94;5073137;28;20076;-64
2023/11/28 07:34:06;;;;;;;;;;;;;;;-5.79;73.19;93772.75;5073489;28;20419;-65
2023/11/28 07:36:31;;;;;;;;;;;;;;;-5.51;75.32;93772.31;5073984;28;20019;-65
2023/11/28 07:38:58;;;;;;;;;;;;;;;-5.96;75.15;93768.91;5072582;28;21872;-66
2023/11/28 07:41:23;;;;;;;;;;;;;;;-6.20;76.14;93776.84;5075190;28;19927;-65
2023/11/28 07:43:49;;;;;;;;;;;;;;;-7.46;81.20;93779.31;5071408;28;19923;-65
2023/11/28 07:46:14;;;;;;;;;;;;;;;-6.62;84.29;93788.66;5074639;28;19924;-65
2023/11/28 07:48:40;;;;;;;;;;;;;;;-6.63;76.02;93781.81;5072042;28;19931;-65
2023/11/28 07:51:05;;;;;;;;;;;;;;;-5.77;80.05;93799.38;5065205;28;19924;-66
2023/11/28 07:53:30;;;;;;;;;;;;;;;-5.76;76.74;93798.47;5065683;28;19924;-65
2023/11/28 07:55:56;;;;;;;;;;;;;;;-5.85;72.83;93797.41;5070415;28;19974;-65
2023/11/28 07:58:21;;;;;;;;;;;;;;;-6.13;72.07;93790.97;5062064;28;20306;-65
2023/11/28 08:00:46;;;;;;;;;;;;;;;-5.81;76.55;93802.34;5068998;28;20160;-65
2023/11/28 08:03:11;;;;;;;;;;;;;;;-6.41;75.04;93817.28;5061056;28;19947;-65
2023/11/28 08:05:37;;;;;;;;;;;;;;;-7.43;76.28;93812.72;5067164;28;19950;-65
2023/11/28 08:08:02;;;;;;;;;;;;;;;-5.91;78.72;93818.63;5069903;28;19929;-65
2023/11/28 08:10:28;;;;;;;;;;;;;;;-7.33;80.19;93833.56;5066837;28;19928;-65
2023/11/28 08:12:53;;;;;;;;;;;;;;;-5.94;78.71;93834.44;5070068;28;19928;-65
2023/11/28 08:15:18;;;;;;;;;;;;;;;-6.59;77.31;93850.53;5074050;28;19924;-65
2023/11/28 08:17:43;;;;;;;;;;;;;;;-5.46;79.67;93856.59;5071986;28;20176;-65
2023/11/28 08:20:09;;;;;;;;;;;;;;;-5.57;78.11;93855.81;5068167;28;20561;-65
2023/11/28 08:22:34;;;;;;;;;;;;;;;-5.08;72.81;93872.63;5070410;28;19924;-65
2023/11/28 08:25:02;;;;;;;;;;;;;;;-5.83;74.21;93882.00;5070566;28;20187;-65
2023/11/28 08:27:28;;;;;;;;;;;;;;;-5.18;76.99;93876.06;5072171;28;19920;-65
2023/11/28 08:29:54;;;;;;;;;;;;;;;-6.14;91.45;93890.38;5071731;28;20800;-65
2023/11/28 08:32:20;;;;;;;;;;;;;;;-5.74;78.05;93889.88;5070559;28;19932;-65
2023/11/28 08:34:46;;;;;;;;;;;;;;;-5.26;70.78;93889.69;5068347;28;19928;-65
2023/11/28 08:37:12;;;;;;;;;;;;;;;-5.24;72.53;93898.16;5074019;28;19985;-65
2023/11/28 08:39:37;;;;;;;;;;;;;;;-5.18;76.81;93902.03;5067826;28;19931;-65
2023/11/28 08:42:03;;;;;;;;;;;;;;;-5.80;71.16;93902.50;5076735;28;19920;-65
2023/11/28 08:44:28;;;;;;;;;;;;;;;-4.98;78.54;93903.03;5070802;28;19920;-65
2023/11/28 08:46:54;;;;;;;;;;;;;;;-4.61;74.01;93910.41;5073081;28;19979;-65
2023/11/28 08:49:22;;;;;;;;;;;;;;;-5.00;75.35;93923.09;5070322;28;20038;-65
2023/11/28 08:51:47;;;;;;;;;;;;;;;-6.16;74.82;93913.81;5072562;28;19924;-65
2023/11/28 08:54:12;;;;;;;;;;;;;;;-5.15;77.10;93915.59;5073541;28;19924;-65
2023/11/28 08:56:37;;;;;;;;;;;;;;;-5.28;72.48;93917.50;5076170;28;19924;-65
2023/11/28 08:59:03;;;;;;;;;;;;;;;-5.11;72.93;93921.34;5062178;28;19934;-65
2023/11/28 09:01:28;;;;;;;;;;;;;;;-5.72;73.78;93921.72;5072205;28;19924;-65
2023/11/28 09:03:54;;;;;;;;;;;;;;;-6.27;71.25;93926.75;5071070;28;19929;-65
2023/11/28 09:06:19;;;;;;;;;;;;;;;-6.26;72.55;93931.00;5073874;28;19930;-65
2023/11/28 09:08:44;;;;;;;;;;;;;;;-6.61;73.13;93930.13;5075698;28;20798;-64
2023/11/28 09:11:12;;;;;;;;;;;;;;;-6.65;75.62;93942.47;5073681;28;19931;-63
2023/11/28 09:13:37;;;;;;;;;;;;;;;-6.62;77.48;93957.75;5077109;28;19977;-64
2023/11/28 09:16:08;;;;;;;;;;;;;;;-6.59;75.55;93958.50;5074512;28;19931;-64
2023/11/28 09:18:35;;;;;;;;;;;;;;;-7.42;80.10;93966.91;5073616;28;20310;-64
2023/11/28 09:21:00;;;;;;;;;;;;;;;-7.98;90.72;93981.09;5069681;28;19920;-64
2023/11/28 09:23:25;;;;;;;;;;;;;;;-7.19;83.02;93977.41;5075039;28;19974;-64
2023/11/28 09:25:50;;;;;;;;;;;;;;;-7.89;81.52;93984.81;5074634;28;20546;-64
2023/11/28 09:28:16;;;;;;;;;;;;;;;-8.04;82.96;93995.25;5076301;28;19959;-64
2023/11/28 09:30:41;;;;;;;;;;;;;;;-7.92;81.54;93998.75;5077409;28;20011;-64
2023/11/28 09:33:07;;;;;;;;;;;;;;;-7.95;81.92;94010.09;5076783;28;19961;-64
2023/11/28 09:35:32;;;;;;;;;;;;;;;-7.78;85.53;94005.56;5076337;28;20738;-64
2023/11/28 09:37:57;;;;;;;;;;;;;;;-7.13;85.07;94000.25;5060288;28;19924;-64
2023/11/28 09:40:23;;;;;;;;;;;;;;;-6.92;81.93;93997.91;5073101;28;19926;-64
2023/11/28 09:42:50;;;;;;;;;;;;;;;-7.23;78.31;93997.50;5074713;28;19933;-64
2023/11/28 09:45:16;;;;;;;;;;;;;;;-7.27;78.92;94007.22;5073871;28;19920;-64
2023/11/28 09:47:43;;;;;;;;;;;;;;;-7.20;81.63;94012.78;5074876;28;20047;-64
2023/11/28 09:50:12;;;;;;;;;;;;;;;-6.78;79.56;94016.78;5065160;28;19935;-64
2023/11/28 09:52:37;;;;;;;;;;;;;;;-6.63;89.55;94022.59;5075722;28;19927;-64
2023/11/28 09:55:03;;;;;;;;;;;;;;;-6.02;74.79;94025.97;5073838;28;19928;-64
2023/11/28 09:57:32;;;;;;;;;;;;;;;-5.93;72.50;94025.28;5073550;28;19923;-64
2023/11/28 09:59:57;;;;;;;;;;;;;;;-6.23;69.91;94034.41;5074434;28;20454;-64
2023/11/28 10:02:22;;;;;;;;;;;;;;;-5.65;70.83;94028.38;5074076;28;19973;-63
2023/11/28 10:04:48;;;;;;;;;;;;;;;-5.63;70.49;94029.09;5075789;28;19950;-64
2023/11/28 10:07:14;;;;;;;;;;;;;;;-6.46;75.73;94036.91;5075258;28;19924;-64
2023/11/28 10:09:40;;;;;;;;;;;;;;;-5.36;73.56;94040.88;5074721;28;20663;-64
2023/11/28 10:12:07;;;;;;;;;;;;;;;-5.90;74.38;94038.03;5074889;28;20405;-64
2023/11/28 10:14:32;;;;;;;;;;;;;;;-6.12;68.18;94037.03;5072986;28;20502;-64
2023/11/28 10:16:57;;;;;;;;;;;;;;;-6.53;75.73;94053.84;5071775;28;19955;-64
2023/11/28 10:19:23;;;;;;;;;;;;;;;-4.60;74.81;94059.28;5075306;28;20774;-64
2023/11/28 10:21:49;;;;;;;;;;;;;;;-5.70;67.03;94059.03;5074480;28;19928;-64
2023/11/28 10:24:14;;;;;;;;;;;;;;;-4.86;65.49;94057.00;5072460;28;19931;-64
2023/11/28 10:26:39;;;;;;;;;;;;;;;-3.82;68.75;94061.69;5073052;28;19928;-64
2023/11/28 10:29:05;;;;;;;;;;;;;;;-3.66;63.42;94060.41;5074673;28;20751;-64
2023/11/28 10:31:39;;;;;;;;;;;;;;;-3.53;69.20;94066.22;5075068;28;20475;-66
2023/11/28 10:34:08;;;;;;;;;;;;;;;-4.61;66.59;94076.66;5072413;28;19916;-64
2023/11/28 10:36:43;;;;;;;;;;;;;;;-3.74;61.43;94075.84;5074532;28;20391;-64
2023/11/28 10:39:08;;;;;;;;;;;;;;;-4.58;65.49;94073.00;5070974;28;19975;-64
2023/11/28 10:41:34;;;;;;;;;;;;;;;-4.88;65.82;94077.91;5073420;28;20553;-64
2023/11/28 10:43:59;;;;;;;;;;;;;;;-5.22;63.94;94077.94;5071563;28;20541;-64
2023/11/28 10:46:25;;;;;;;;;;;;;;;-5.86;64.02;94091.31;5072388;28;19964;-64
2023/11/28 10:48:50;;;;;;;;;;;;;;;-5.00;64.74;94097.03;5073984;28;19930;-65
2023/11/28 10:51:16;;;;;;;;;;;;;;;-4.59;67.31;94092.09;5072709;28;20007;-65
2023/11/28 10:53:41;;;;;;;;;;;;;;;-4.63;67.98;94094.13;5074472;28;20301;-65
2023/11/28 10:56:07;;;;;;;;;;;;;;;-5.09;61.73;94094.19;5075135;28;19924;-65
2023/11/28 10:58:32;;;;;;;;;;;;;;;-5.95;64.45;94102.34;5074694;28;20033;-64
2023/11/28 11:01:02;;;;;;;;;;;;;;;-5.52;66.11;94100.91;5071788;28;19939;-65
2023/11/28 11:03:27;;;;;;;;;;;;;;;-6.66;64.91;94103.13;5056846;28;20033;-65
2023/11/28 11:05:53;;;;;;;;;;;;;;;-7.14;69.88;94105.50;5073910;28;19947;-65
2023/11/28 11:08:18;;;;;;;;;;;;;;;-6.40;73.96;94108.16;5068907;28;19970;-65
2023/11/28 11:10:44;;;;;;;;;;;;;;;-6.57;68.56;94106.78;5074686;28;19978;-65
2023/11/28 11:13:09;;;;;;;;;;;;;;;-6.82;66.69;94111.13;5074515;28;19996;-64
2023/11/28 11:15:35;;;;;;;;;;;;;;;-6.44;66.50;94112.75;5068544;28;20642;-65
2023/11/28 11:21:14;;;;;;;;;;;;;;;-7.44;70.07;94134.31;5071113;28;19943;-64
2023/11/28 11:26:33;;;;;;;;;;;;;;;-6.78;65.50;94136.69;5073381;28;20367;-65
2023/11/28 11:29:01;;;;;;;;;;;;;;;-6.98;65.52;94148.44;5071035;28;20493;-65
2023/11/28 11:34:31;;;;;;;;;;;;;;;-6.68;64.60;94143.81;5065513;28;19930;-66
2023/11/28 11:37:15;;;;;;;;;;;;;;;-5.96;64.88;94139.56;5059706;28;19912;-66
2023/11/28 11:48:29;;;;;;;;;;;;;;;-6.75;65.87;94164.13;5066510;28;20007;-65
2023/11/28 11:53:57;;;;;;;;;;;;;;;-7.16;66.80;94159.13;5066766;28;19937;-65
2023/11/28 11:56:41;;;;;;;;;;;;;;;-7.38;67.31;94179.59;5063966;28;19954;-66
2023/11/28 12:02:28;;;;;;;;;;;;;;;-7.22;67.00;94182.81;5068861;28;19971;-64
2023/11/28 12:04:53;;;;;;;;;;;;;;;-7.04;64.69;94188.50;5047359;28;19920;-65
2023/11/28 12:07:19;;;;;;;;;;;;;;;-6.91;67.27;94191.06;5043307;28;20489;-65
2023/11/28 12:09:44;;;;;;;;;;;;;;;-6.91;66.14;94192.81;5043555;28;20470;-65
2023/11/28 12:12:11;;;;;;;;;;;;;;;-6.81;65.78;94200.78;5050527;28;20766;-65
2023/11/28 12:14:37;;;;;;;;;;;;;;;-6.39;66.08;94206.50;5049702;28;19956;-66
2023/11/28 12:17:02;;;;;;;;;;;;;;;-6.19;65.77;94209.44;5049381;28;19925;-65
2023/11/28 12:19:29;;;;;;;;;;;;;;;-6.86;62.68;94213.22;5050926;28;20062;-65
2023/11/28 12:21:56;;;;;;;;;;;;;;;-7.36;65.64;94216.53;5053964;28;20048;-66
2023/11/28 12:24:21;;;;;;;;;;;;;;;-7.46;65.84;94216.31;5048195;28;20029;-65
2023/11/28 12:26:46;;;;;;;;;;;;;;;-6.88;70.20;94215.91;5046868;28;19956;-66
2023/11/28 12:29:11;;;;;;;;;;;;;;;-7.88;65.92;94221.59;5048435;28;19954;-65
2023/11/28 12:31:37;;;;;;;;;;;;;;;-7.43;66.47;94214.38;5048805;28;19969;-65
2023/11/28 12:34:02;;;;;;;;;;;;;;;-7.04;68.94;94218.69;5050810;28;19938;-65
2023/11/28 12:36:27;;;;;;;;;;;;;;;-6.44;64.77;94218.13;5048169;28;19938;-65
2023/11/28 12:38:57;;;;;;;;;;;;;;;-5.64;69.43;94223.72;5044240;28;20758;-65
2023/11/28 12:41:31;;;;;;;;;;;;;;;-5.35;64.48;94212.97;5047537;28;19928;-65
2023/11/28 12:43:58;;;;;;;;;;;;;;;-6.06;61.57;94218.91;5056395;28;20531;-66
2023/11/28 12:46:23;;;;;;;;;;;;;;;-5.72;67.98;94224.28;5057945;28;19931;-65
2023/11/28 12:48:49;;;;;;;;;;;;;;;-5.70;60.83;94231.94;5078131;28;19930;-65
2023/11/28 12:51:15;;;;;;;;;;;;;;;-5.92;69.44;94236.91;5066554;28;19924;-66
2023/11/28 12:53:41;;;;;;;;;;;;;;;-5.90;71.75;94240.22;5047286;28;19921;-66
2023/11/28 12:56:07;;;;;;;;;;;;;;;-5.18;64.20;94244.59;5052391;28;20433;-66
2023/11/28 12:58:32;;;;;;;;;;;;;;;-4.95;57.40;94230.72;5059817;28;19928;-65
2023/11/28 13:00:57;;;;;;;;;;;;;;;-5.02;61.17;94244.28;5052290;28;20823;-66
2023/11/28 13:03:23;;;;;;;;;;;;;;;-5.60;62.19;94245.91;5060086;28;19932;-66